Latest Weather Observations for Wynyard

IDT60801

Issued at 7:31 pm EST Friday 31 July 2015 (issued every 30 minutes, with the page automatically refreshed every 10 minutes)

About weather observations | Map of weather stations | Latest weather observations for TAS | Other Formats
Station Details ID: 091107 Name: WYNYARD AIRPORT Lat: -41.00 Lon: 145.73 Height: 12.0 m
Data from the previous 72 hours. | See also: Recent months at Wynyard
Date/Time
EST
Temp
°C
App
Temp
°C
Dew
Point
Rel
Hum
%
Delta-T
°C
Wind Press
QNH
hPa
Press
MSL
hPa
Rain
since 9 am
mm
Dir
 
Spd
km/h
Gust
km/h
Spd
kts
Gust
kts
31/07:30pm 8.1 5.9 8.0 99 0.0 W 9 13 5 7 1011.9 1012.0 0.2
31/07:00pm 8.1 4.7 7.7 97 0.2 WNW 15 20 8 11 1012.3 1012.4 0.2
31/06:30pm 7.2 5.2 7.1 99 0.0 W 7 11 4 6 1012.3 1012.4 0.2
31/06:00pm 6.9 4.0 6.3 96 0.3 W 11 15 6 8 1012.7 1012.8 0.2
31/05:30pm 7.0 4.1 6.3 95 0.3 W 11 13 6 7 1012.6 1012.7 0.2
31/05:00pm 8.3 5.1 6.9 91 0.7 WNW 13 17 7 9 1012.8 1012.9 0.2
31/04:30pm 8.5 4.3 7.4 93 0.5 WNW 19 28 10 15 1012.5 1012.6 0.2
31/04:00pm 9.1 3.8 6.7 85 1.1 NW 24 32 13 17 1013.2 1013.3 0.0
31/03:30pm 9.9 5.6 6.8 81 1.5 NW 19 28 10 15 1013.3 1013.4 0.0
31/03:00pm 10.1 5.5 6.4 78 1.7 WNW 20 30 11 16 1013.6 1013.7 0.0
31/02:30pm 11.1 6.6 6.8 75 2.0 NW 20 28 11 15 1014.0 1014.1 0.0
31/02:00pm 11.0 5.8 5.5 69 2.5 WNW 22 35 12 19 1014.1 1014.2 0.0
31/01:30pm 10.6 5.2 6.2 74 2.0 WNW 24 35 13 19 1014.6 1014.7 0.0
31/01:00pm 9.9 6.4 7.0 82 1.4 WNW 15 20 8 11 1015.2 1015.3 0.0
31/12:30pm 10.1 5.4 5.9 75 1.9 W 20 35 11 19 1015.7 1015.8 0.0
31/12:00pm 11.1 6.5 6.5 73 2.2 WNW 20 30 11 16 1015.9 1016.0 0.0
31/11:30am 10.5 5.8 5.9 73 2.1 WNW 20 26 11 14 1016.5 1016.6 0.0
31/11:00am 10.0 5.4 5.6 74 2.0 WNW 19 26 10 14 1016.7 1016.8 0.0
31/10:30am 8.9 5.3 5.1 77 1.7 WNW 13 19 7 10 1017.1 1017.1 0.0
31/10:00am 7.9 4.4 5.5 85 1.1 W 13 17 7 9 1016.8 1016.9 0.0
31/09:30am 5.8 2.9 4.9 94 0.4 W 9 13 5 7 1016.8 1016.9 0.0
31/09:00am 4.5 1.6 4.4 99 0.0 WNW 9 11 5 6 1016.5 1016.6 9.8
31/08:30am 2.5 -0.8 2.4 99 0.0 SSW 9 11 5 6 1016.4 1016.5 9.8
31/08:00am 1.6 -2.6 1.5 99 0.0 WNW 13 15 7 8 1016.5 1016.6 9.8
31/07:30am 0.0 -4.1 -0.1 99 0.0 WSW 11 13 6 7 1016.1 1016.2 9.8
31/07:00am 0.6 -3.4 0.5 99 0.0 WNW 11 13 6 7 1015.6 1015.7 9.8
31/06:30am 1.2 -3.5 1.1 99 0.0 W 15 17 8 9 1015.7 1015.8 9.8
31/06:00am 0.7 -2.9 0.6 99 0.0 WSW 9 13 5 7 1015.5 1015.6 9.8
31/05:30am 1.5 -1.6 1.4 99 0.0 WNW 7 9 4 5 1015.2 1015.3 9.8
31/05:00am 2.1 -0.9 2.0 99 0.0 SW 7 7 4 4 1015.0 1015.1 9.8
31/04:30am 3.3 -0.3 2.7 96 0.2 NW 11 13 6 7 1014.7 1014.8 9.8
31/04:00am 3.5 -0.2 2.6 94 0.4 NW 11 15 6 8 1014.8 1014.9 9.8
31/03:30am 3.4 0.5 2.7 95 0.3 WNW 7 11 4 6 1014.4 1014.5 9.8
31/03:00am 3.7 0.4 2.5 92 0.5 WSW 9 13 5 7 1014.0 1014.1 9.8
31/02:30am 3.9 -0.1 2.6 91 0.5 WSW 13 17 7 9 1013.9 1014.0 9.8
31/02:00am 4.6 0.3 3.1 90 0.6 WSW 15 20 8 11 1013.6 1013.7 9.8
31/01:30am 5.1 -0.2 3.0 86 0.9 W 20 28 11 15 1013.2 1013.3 9.8
31/01:00am 4.9 -0.3 2.6 85 0.9 WSW 19 24 10 13 1012.7 1012.8 9.8
31/12:30am 5.4 0.2 3.3 86 0.9 WSW 20 28 11 15 1012.2 1012.3 9.8
31/12:09am 6.1 -0.6 3.8 85 1.0 WSW 28 48 15 26 1011.8 1011.9 9.8
31/12:00am 5.5 0.5 3.8 89 0.7 W 19 28 10 15 1011.9 1012.0 9.8
 
Date/Time
EST
Temp
°C
App
Temp
°C
Dew
Point
Rel
Hum
%
Delta-T
°C
Wind Press
QNH
hPa
Press
MSL
hPa
Rain
since 9 am
mm
Dir
 
Spd
km/h
Gust
km/h
Spd
kts
Gust
kts
30/11:30pm 6.1 0.6 4.1 87 0.9 W 22 28 12 15 1011.3 1011.4 9.8
30/11:00pm 6.5 -0.6 3.8 83 1.1 WSW 30 43 16 23 1010.4 1010.5 9.8
30/10:51pm 6.8 0.1 3.8 81 1.3 WSW 28 52 15 28 1010.4 1010.5 9.8
30/10:30pm 6.7 0.9 4.2 84 1.1 WSW 24 33 13 18 1010.0 1010.1 9.8
30/10:00pm 7.4 -0.1 4.5 82 1.3 WSW 33 52 18 28 1009.0 1009.1 9.8
30/09:54pm 7.4 0.5 4.7 83 1.2 WSW 30 52 16 28 1008.7 1008.8 9.8
30/09:30pm 7.3 0.5 5.3 87 0.9 WSW 30 44 16 24 1007.8 1007.9 9.8
30/09:00pm 7.3 2.0 6.6 95 0.3 WSW 24 35 13 19 1007.0 1007.1 9.8
30/08:30pm 7.9 3.2 7.8 99 0.0 W 22 28 12 15 1006.5 1006.6 9.4
30/08:00pm 7.8 3.5 7.2 96 0.3 W 19 24 10 13 1005.6 1005.7 9.0
30/07:30pm 7.9 3.0 7.0 94 0.4 W 22 28 12 15 1005.1 1005.2 9.0
30/07:29pm 7.9 3.0 7.0 94 0.4 W 22 30 12 16 1005.1 1005.2 9.0
30/07:10pm 8.0 0.3 6.9 93 0.5 SW 37 56 20 30 1005.2 1005.3 9.0
30/07:00pm 8.4 -0.3 7.5 94 0.4 WSW 43 61 23 33 1005.1 1005.2 8.8
30/06:59pm 8.5 -0.4 7.6 94 0.4 WSW 44 67 24 36 1005.1 1005.2 8.8
30/06:56pm 8.7 -1.3 7.8 94 0.4 WSW 50 70 27 38 1004.8 1004.9 8.8
30/06:47pm 9.3 1.0 9.2 99 0.0 WNW 43 70 23 38 1003.7 1003.8 8.6
30/06:46pm 9.5 1.6 9.4 99 0.0 WNW 41 56 22 30 1003.7 1003.8 8.6
30/06:30pm 9.7 1.9 9.6 99 0.0 NW 41 59 22 32 1003.9 1004.0 8.0
30/06:00pm 9.4 1.5 9.3 99 0.0 NW 41 59 22 32 1004.3 1004.4 7.0
30/05:45pm 9.4 2.2 9.3 99 0.0 NW 37 56 20 30 1004.5 1004.6 6.2
30/05:37pm 9.3 2.1 9.2 99 0.0 WNW 37 52 20 28 1004.6 1004.7 6.0
30/05:30pm 9.3 1.7 9.2 99 0.0 NW 39 57 21 31 1004.7 1004.8 5.8
30/05:01pm 10.4 3.8 8.5 88 0.9 NW 33 54 18 29 1004.9 1005.0 4.0
30/05:00pm 10.4 3.8 8.5 88 0.9 NW 33 46 18 25 1005.0 1005.1 4.0
30/04:30pm 10.2 4.6 8.6 90 0.8 NW 28 43 15 23 1005.6 1005.7 3.8
30/04:13pm 10.2 4.5 8.5 89 0.8 NW 28 50 15 27 1005.9 1006.0 3.6
30/04:00pm 10.2 5.3 8.6 90 0.8 NW 24 35 13 19 1006.2 1006.3 3.4
30/03:36pm 9.8 3.7 8.2 90 0.8 NW 30 43 16 23 1007.0 1007.1 2.8
30/03:30pm 9.8 3.1 8.1 89 0.8 NW 33 54 18 29 1007.0 1007.1 2.6
30/03:00pm 9.8 3.3 8.2 90 0.8 NW 32 57 17 31 1007.7 1007.8 1.8
30/02:57pm 9.9 3.1 7.8 87 1.0 NW 33 57 18 31 1007.7 1007.8 1.4
30/02:32pm 10.3 4.5 7.9 85 1.2 NW 28 50 15 27 1008.3 1008.4 1.0
30/02:30pm 10.1 4.3 7.9 86 1.1 NW 28 44 15 24 1008.4 1008.5 1.0
30/02:03pm 10.5 3.5 7.0 79 1.7 NW 33 54 18 29 1008.8 1008.9 0.6
30/02:00pm 10.6 3.8 7.5 81 1.5 NW 33 48 18 26 1008.8 1008.9 0.6
30/01:30pm 10.1 4.7 7.9 86 1.1 NW 26 35 14 19 1009.5 1009.6 0.6
30/01:09pm 10.2 3.4 7.6 84 1.2 NW 33 54 18 29 1010.2 1010.3 0.4
30/01:03pm 10.6 3.9 7.3 80 1.6 NW 32 54 17 29 1010.4 1010.5 0.0
30/01:00pm 10.9 4.2 7.4 79 1.7 NW 32 46 17 25 1010.5 1010.6 0.0
30/12:30pm 11.7 4.8 7.2 74 2.2 NNW 33 46 18 25 1011.2 1011.3 0.0
30/12:04pm 11.8 4.8 6.7 71 2.4 NW 33 52 18 28 1011.9 1012.0 0.0
30/12:00pm 11.9 4.5 6.8 71 2.4 NW 35 52 19 28 1012.0 1012.1 0.0
30/11:30am 12.2 5.4 7.1 71 2.5 NNW 32 50 17 27 1013.1 1013.2 0.0
30/11:21am 12.5 5.8 7.4 71 2.5 NNW 32 50 17 27 1013.2 1013.3 0.0
30/11:00am 11.6 5.2 6.9 73 2.2 NNW 30 43 16 23 1013.5 1013.6 0.0
30/10:30am 12.4 6.3 8.1 75 2.1 NW 30 43 16 23 1014.6 1014.7 0.0
30/10:00am 11.2 4.9 7.3 77 1.9 NNW 30 39 16 21 1015.0 1015.1 0.0
30/09:30am 11.1 5.6 7.4 78 1.8 NW 26 39 14 21 1015.6 1015.7 0.0
30/09:00am 10.8 5.6 7.1 78 1.8 NNW 24 37 13 20 1016.0 1016.1 0.6
30/08:30am 10.7 5.2 7.4 80 1.6 NNW 26 35 14 19 1016.3 1016.4 0.6
30/08:00am 10.5 6.1 7.2 80 1.6 NNW 20 30 11 16 1016.5 1016.6 0.6
30/07:30am 10.4 5.8 6.7 78 1.7 NW 20 30 11 16 1017.0 1017.0 0.6
30/07:00am 10.5 5.6 6.8 78 1.7 NW 22 35 12 19 1017.2 1017.2 0.6
30/06:30am 10.5 5.7 7.2 80 1.6 NNW 22 30 12 16 1017.4 1017.4 0.6
30/06:00am 10.5 5.6 7.0 79 1.7 NW 22 30 12 16 1017.8 1017.8 0.6
30/05:30am 10.5 6.2 7.2 80 1.6 NW 19 24 10 13 1018.2 1018.2 0.6
30/05:00am 10.5 6.1 7.4 81 1.5 NNW 20 35 11 19 1018.7 1018.7 0.6
30/04:30am 10.6 6.1 6.9 78 1.8 NNW 20 30 11 16 1019.1 1019.1 0.6
30/04:00am 10.7 5.8 6.8 77 1.8 NW 22 35 12 19 1019.6 1019.6 0.6
30/03:30am 10.7 5.4 6.8 77 1.8 NW 24 35 13 19 1019.8 1019.8 0.6
30/03:00am 10.8 5.9 7.1 78 1.8 NW 22 33 12 18 1020.2 1020.2 0.6
30/02:30am 10.8 6.0 7.3 79 1.7 NW 22 28 12 15 1020.5 1020.5 0.6
30/02:00am 10.7 6.3 7.2 79 1.7 NW 20 28 11 15 1021.0 1021.0 0.6
30/01:30am 10.8 6.0 7.3 79 1.7 NW 22 30 12 16 1021.0 1021.0 0.6
30/01:00am 10.9 6.0 7.0 77 1.8 NW 22 32 12 17 1021.9 1021.9 0.6
30/12:30am 10.7 6.4 7.8 82 1.4 NW 20 26 11 14 1022.2 1022.2 0.6
30/12:00am 9.1 7.2 9.0 99 0.0 WNW 9 17 5 9 1022.6 1022.6 0.6
 
Date/Time
EST
Temp
°C
App
Temp
°C
Dew
Point
Rel
Hum
%
Delta-T
°C
Wind Press
QNH
hPa
Press
MSL
hPa
Rain
since 9 am
mm
Dir
 
Spd
km/h
Gust
km/h
Spd
kts
Gust
kts
29/11:30pm 8.1 7.6 8.0 99 0.0 CALM 0 0 0 0 1023.1 1023.1 0.6
29/11:00pm 8.0 7.1 7.9 99 0.0 S 2 7 1 4 1023.4 1023.4 0.6
29/10:30pm 8.4 7.8 7.5 94 0.4 CALM 0 0 0 0 1023.7 1023.7 0.6
29/10:00pm 8.9 6.6 7.4 90 0.7 W 9 11 5 6 1024.0 1024.0 0.6
29/09:30pm 9.6 6.5 7.2 85 1.1 WNW 13 17 7 9 1024.3 1024.3 0.6
29/09:00pm 10.4 7.0 7.8 84 1.2 WNW 15 20 8 11 1024.4 1024.4 0.6
29/08:30pm 10.5 6.9 8.3 86 1.1 NW 17 26 9 14 1024.6 1024.6 0.6
29/08:00pm 10.5 7.0 8.8 89 0.8 NW 17 24 9 13 1024.7 1024.7 0.6
29/07:30pm 10.5 7.2 9.7 95 0.4 NW 17 24 9 13 1024.7 1024.7 0.6
29/07:00pm 9.2 7.7 9.1 99 0.0 W 7 9 4 5 1024.7 1024.7 0.6
29/06:30pm 9.2 7.9 9.1 99 0.0 W 6 7 3 4 1024.5 1024.5 0.6
29/06:00pm 9.7 7.6 9.6 99 0.0 WNW 11 13 6 7 1024.6 1024.6 0.6
29/05:30pm 9.9 7.3 9.4 97 0.2 WNW 13 17 7 9 1024.7 1024.7 0.6
29/05:00pm 10.0 6.6 9.1 94 0.4 W 17 24 9 13 1024.8 1024.8 0.6
29/04:30pm 10.5 5.8 9.4 93 0.5 WNW 24 33 13 18 1025.1 1025.1 0.6
29/04:19pm 10.3 7.0 9.7 96 0.3 WNW 17 37 9 20 1025.2 1025.2 0.6
29/04:00pm 10.7 9.6 10.5 99 0.1 W 7 9 4 5 1025.3 1025.3 0.6
29/03:30pm 10.6 9.0 10.3 98 0.2 W 9 13 5 7 1025.6 1025.6 0.6
29/03:00pm 10.4 8.0 10.2 99 0.1 W 13 19 7 10 1025.7 1025.7 0.6
29/02:59pm 10.4 8.0 10.2 99 0.1 WNW 13 20 7 11 1025.7 1025.7 0.6
29/02:41pm 10.4 6.7 10.2 99 0.1 NW 20 30 11 16 1026.0 1026.0 0.4
29/02:30pm 10.8 7.2 10.6 99 0.1 NW 20 30 11 16 1026.0 1026.0 0.2
29/02:29pm 10.7 7.1 10.5 99 0.1 NW 20 30 11 16 1026.0 1026.0 0.2
29/02:06pm 10.7 6.7 10.5 99 0.1 NW 22 32 12 17 1026.2 1026.2 0.2
29/02:00pm 10.7 6.3 10.5 99 0.1 NW 24 35 13 19 1026.2 1026.2 0.2
29/01:48pm 10.7 6.3 10.5 99 0.1 NW 24 35 13 19 1026.4 1026.4 0.2
29/01:30pm 10.6 6.6 10.4 99 0.1 NW 22 30 12 16 1026.6 1026.6 0.0
29/01:04pm 10.6 7.5 10.3 98 0.2 NW 17 24 9 13 1027.0 1027.0 0.0
29/01:00pm 10.5 7.0 10.2 98 0.2 NW 19 26 10 14 1027.1 1027.1 0.0
29/12:30pm 10.7 7.7 10.5 99 0.1 NW 17 24 9 13 1027.8 1027.8 0.0
29/12:11pm 11.2 7.7 10.1 93 0.6 NW 19 30 10 16 1028.2 1028.2 0.0
29/12:00pm 11.5 8.7 10.1 91 0.7 NW 15 24 8 13 1028.4 1028.4 0.0
29/11:30am 10.9 8.6 10.4 97 0.3 WNW 13 19 7 10 1028.9 1028.9 0.0
29/11:10am 10.9 9.4 10.7 99 0.1 NW 9 13 5 7 1029.2 1029.2 0.0
29/11:00am 10.2 7.8 10.0 99 0.1 WNW 13 15 7 8 1029.3 1029.3 0.0
29/10:30am 9.9 7.5 9.9 100 0.0 W 13 19 7 10 1029.5 1029.5 0.0
29/10:05am 9.2 7.7 9.2 100 0.0 WSW 7 9 4 5 1029.7 1029.7 0.0
29/10:00am 9.0 7.6 9.0 100 0.0 SW 6 9 3 5 1029.7 1029.7 0.0
29/09:41am 7.1 5.3 7.1 100 0.0 W 6 6 3 3 1029.8 1029.8 0.0
29/09:30am 6.7 4.8 6.7 100 0.0 W 6 6 3 3 1029.9 1029.9 0.0
29/09:09am 5.9 4.2 5.9 100 0.0 WNW 4 6 2 3 1030.1 1030.1 0.0
29/09:00am 6.0 5.1 6.0 100 0.0 CALM 0 4 0 2 1030.2 1030.2 0.6
29/08:44am 5.7 3.4 5.7 100 0.0 WNW 7 9 4 5 1030.4 1030.4 0.6
29/08:31am 5.1 2.7 5.1 100 0.0 WSW 7 9 4 5 1030.4 1030.4 0.6
29/08:30am 5.0 2.5 5.0 100 0.0 WSW 7 9 4 5 1030.4 1030.4 0.6
29/08:10am 3.7 0.6 3.7 100 0.0 W 9 11 5 6 1030.2 1030.2 0.6
29/08:00am 3.7 1.0 3.7 100 0.0 WNW 7 9 4 5 1030.1 1030.1 0.6
29/07:55am 3.8 1.3 3.8 100 0.0 WNW 6 9 3 5 1030.1 1030.1 0.6
29/07:30am 4.3 1.7 4.3 100 0.0 SW 7 11 4 6 1030.2 1030.2 0.6
29/07:21am 4.1 1.5 4.1 100 0.0 WSW 7 9 4 5 1030.2 1030.2 0.6
29/07:13am 4.1 1.5 4.1 100 0.0 SW 7 9 4 5 1030.3 1030.3 0.6
29/07:00am 3.9 0.9 3.9 100 0.0 W 9 11 5 6 1030.3 1030.3 0.4
29/06:57am 3.7 0.6 3.7 100 0.0 WSW 9 11 5 6 1030.2 1030.2 0.4
29/06:30am 3.1 -0.1 3.0 99 0.0 W 9 11 5 6 1030.0 1030.0 0.0
29/06:00am 2.5 -1.2 2.4 99 0.0 W 11 13 6 7 1029.9 1029.9 0.0
29/05:30am 1.7 -1.7 1.6 99 0.0 WSW 9 11 5 6 1029.6 1029.6 0.0
29/05:19am 2.2 -1.2 2.1 99 0.0 W 9 9 5 5 1029.6 1029.6 0.0
29/05:00am 2.3 -0.7 2.2 99 0.0 W 7 7 4 4 1029.5 1029.5 0.0
29/04:30am 1.4 -2.1 1.3 99 0.0 WSW 9 9 5 5 1029.6 1029.6 0.0
29/04:00am 2.4 -0.6 2.3 99 0.0 WNW 7 9 4 5 1029.5 1029.5 0.0
29/03:30am 3.1 0.3 3.0 99 0.0 NW 7 9 4 5 1029.7 1029.7 0.0
29/03:00am 3.6 1.1 3.5 99 0.0 NW 6 9 3 5 1030.0 1030.0 0.0
29/02:30am 2.6 -0.3 2.5 99 0.0 NW 7 9 4 5 1030.1 1030.1 0.0
29/02:00am 3.6 0.5 3.5 99 0.0 NW 9 9 5 5 1030.0 1030.0 0.0
29/01:54am 3.4 0.2 3.3 99 0.0 NW 9 11 5 6 1030.0 1030.0 0.0
29/01:52am 4.3 1.3 4.2 99 0.0 NW 9 15 5 8 1030.0 1030.0 0.0
29/01:30am 3.6 0.1 3.5 99 0.0 NW 11 13 6 7 1030.0 1030.0 0.0
29/01:00am 3.6 0.5 3.5 99 0.0 WNW 9 11 5 6 1030.2 1030.2 0.0
29/12:30am 5.6 2.5 5.5 99 0.0 NW 11 13 6 7 1030.4 1030.4 0.0
29/12:00am 6.0 3.4 5.9 99 0.0 NW 9 11 5 6 1030.5 1030.5 0.0
 
Date/Time
EST
Temp
°C
App
Temp
°C
Dew
Point
Rel
Hum
%
Delta-T
°C
Wind Press
QNH
hPa
Press
MSL
hPa
Rain
since 9 am
mm
Dir
 
Spd
km/h
Gust
km/h
Spd
kts
Gust
kts
28/11:37pm 5.4 2.6 5.3 99 0.0 WNW 9 9 5 5 1030.5 1030.5 0.0
28/11:30pm 5.8 3.1 5.7 99 0.0 WNW 9 11 5 6 1030.5 1030.5 0.0
28/11:00pm 6.7 4.2 6.6 99 0.0 WNW 9 11 5 6 1030.6 1030.6 0.0
28/10:30pm 6.0 2.6 5.9 99 0.0 WSW 13 15 7 8 1030.6 1030.6 0.0
28/10:00pm 6.4 2.7 6.3 99 0.0 W 15 17 8 9 1030.5 1030.5 0.0
28/09:30pm 6.8 2.8 6.7 99 0.0 W 17 19 9 10 1030.3 1030.3 0.0
28/09:00pm 7.4 5.1 7.3 99 0.0 WNW 9 11 5 6 1030.4 1030.4 0.0
28/08:30pm 8.5 6.4 8.4 99 0.0 WNW 9 15 5 8 1030.2 1030.2 0.0
28/08:00pm 8.5 5.6 8.1 97 0.2 W 13 15 7 8 1030.1 1030.1 0.0

Other Formats:

Comma delimited format used in spreadsheet applications
http://www.bom.gov.au/fwo/IDT60801/IDT60801.95957.axf

JavaScript Object Notation format (JSON) in row-major order
http://www.bom.gov.au/fwo/IDT60801/IDT60801.95957.json